Terminal Aerodrome Forecast
Issued by NWS

Home | Current Version | Previous Version | Graphics & Text | Print | Product List | Glossary On
Versions: 1 2 3 4 5 6 7 8 9 10 11 12 13
648
FTUS43 KABR 222320
TAFPIR
TAF
KPIR 222320Z 2300/2324 36007KT P6SM SKC
     FM230400 35007KT P6SM FEW250
     FM232200 04006KT P6SM SKC=

USA.gov is the U.S. government's official web portal to all federal, state and local government web resources and services.